Lake Worth, FL (33460)

8:17 PM EST on December 09, 2016 (GMT -0500)
Lake Clarke Shores - Caribbean Rd. East | | Change Station

Elev 16 ft 26.63 °N, 80.07 °W | Updated 7 seconds ago

Overcast
Overcast
68.5 °F
Feels Like 68.5 °F
N
2.5
Wind Variable Wind from NW
Gusts 2.5 mph

Today
High -- | Low -- °F
--% Chance of Precip.
Yesterday
High -- | Low -- °F
Precip. -- in
Pressure 30.21 in
Visibility 10.0 miles
Clouds Scattered Clouds 3100 ft
Mostly Cloudy 14000 ft
Dew Point 61 °F
Humidity 78%
Rainfall 0.00 in
Snow Depth Not available.
6:57 AM 5:28 PM
Waxing Gibbous, 79% visible
METAR KPBI 100053Z 35015KT 10SM SCT031 BKN140 19/14 A3021 RMK AO2 SLP228 T01940144
Pressure 30.21 in
Visibility 10.0 miles
Clouds Scattered Clouds 3100 ft
Mostly Cloudy 14000 ft
Dew Point 61 °F
Humidity 78%
Rainfall 0.00 in
Snow Depth Not available.
6:57 AM 5:28 PM
Waxing Gibbous, 79% visible
METAR KPBI 100053Z 35015KT 10SM SCT031 BKN140 19/14 A3021 RMK AO2 SLP228 T01940144

10-Day Weather Forecast

Almanac

Astronomy

Dec. 09, 2016 Rise Set
Actual Time
Civil Twilight
Nautical Twilight
Astronomical Twilight
Moon
Length of Visible Light
Length of Day
Tomorrow will be .
, % of the Moon is Illuminated

Today's Extremes

State Highs State Lows

Community

WunderPhotos

Upload Photos

1,956,534 photos uploaded!

WunderBlog® & News

Nearby

Air Quality

  Air Quality AQ Index Pollutant
Not available.

Snow Depth

Station Depth Elevation

Earthquake Activity

City Distance Mag. Time & Date
Minimum magnitude displayed is 2.5.

Coastal Water Temperatures

Place Temperature

Stations

Nearby Weather Stations

Station Location Temp. Windchill Dew Point Humidity Wind Precip. Elev Updated Type
                   

Watches & Warnings

There are currently no watches in effect.